Lutz, FL (33558)

4:31 PM EST on February 12, 2016 (GMT -0500)
APRSWXNET | | Change Station
CLOSE
Current Station
Personal Weather Station
Location: Lutz, FL
Elevation: 75 ft
Nearby Weather Stations

Elev 75 ft 28.15 °N, 82.55 °W | Updated 27 minutes ago

Clear
Clear
70 °F
Feels Like 70 °F
N
2
Wind Variable Wind from WNW
Gusts 13.0 mph

Today
High -- | Low -- °F
--% Chance of Precip.
Yesterday
High -- | Low -- °F
Precip. -- in
Pressure 30.22 in
Visibility 10.0 miles
Clouds Few 3600 ft
Dew Point 58 °F
Humidity 66%
Rainfall in
Snow Depth Not available.
7:10 AM 6:18 PM
Waxing Crescent, 24% visible
METAR KTPA 122053Z 24008KT 10SM FEW036 20/13 A3022 RMK AO2 SLP234 T02000133 56019
Pressure 30.22 in
Visibility 10.0 miles
Clouds Few 3600 ft
Dew Point 58 °F
Humidity 66%
Rainfall in
Snow Depth Not available.
7:10 AM 6:18 PM
Waxing Crescent, 24% visible
METAR KTPA 122053Z 24008KT 10SM FEW036 20/13 A3022 RMK AO2 SLP234 T02000133 56019

10-Day Weather Forecast

Almanac

Astronomy

Feb. 12, 2016 Rise Set
Actual Time
Civil Twilight
Nautical Twilight
Astronomical Twilight
Moon
Length of Visible Light
Length of Day
Tomorrow will be .
, % of the Moon is Illuminated

Today's Extremes

State Highs State Lows

Community

WunderPhotos

Upload Photos

1,892,405 photos uploaded!

WunderBlog® & News

Nearby

Air Quality

  Air Quality AQ Index Pollutant
Not available.

Snow Depth

Station Depth Elevation

Earthquake Activity

City Distance Mag. Time & Date
Minimum magnitude displayed is 2.5.

Coastal Water Temperatures

Place Temperature

Stations

Nearby Weather Stations

Station Location Temp. Windchill Dew Point Humidity Wind Precip. Elev Updated Type
                   

Watches & Warnings

There are currently no watches in effect.